createdAt,value
2023-05-03T00:01:00.243Z,25.90
2023-05-03T00:03:06.854Z,24.80
2023-05-03T00:05:12.983Z,24.35
2023-05-03T00:07:14.765Z,25.33
2023-05-03T00:09:16.135Z,26.20
2023-05-03T00:11:17.561Z,25.75
2023-05-03T00:13:18.971Z,27.13
2023-05-03T00:15:20.593Z,27.00
2023-05-03T00:17:22.198Z,27.23
2023-05-03T00:19:31.460Z,28.42
2023-05-03T00:21:33.340Z,28.65
2023-05-03T00:23:34.743Z,26.85
2023-05-03T00:25:36.172Z,27.52
2023-05-03T00:27:38.301Z,28.25
2023-05-03T00:29:39.697Z,29.48
2023-05-03T00:31:43.278Z,30.05
2023-05-03T00:33:44.753Z,29.63
2023-05-03T00:35:46.216Z,31.95
2023-05-03T00:37:47.608Z,33.17
2023-05-03T00:39:49.101Z,32.70
2023-05-03T00:41:50.595Z,31.83
2023-05-03T00:43:52.135Z,31.00
2023-05-03T00:45:57.243Z,33.22
2023-05-03T00:48:06.478Z,32.78
2023-05-03T00:50:08.270Z,33.00
2023-05-03T00:52:09.764Z,32.25
2023-05-03T00:54:11.439Z,34.33
2023-05-03T00:56:15.196Z,32.35
2023-05-03T00:58:16.968Z,32.15
2023-05-03T01:00:19.276Z,33.10
2023-05-03T01:02:21.772Z,35.35
2023-05-03T01:04:23.574Z,36.70
2023-05-03T01:06:43.560Z,36.75
2023-05-03T01:08:49.344Z,37.58
2023-05-03T01:10:57.932Z,36.67
2023-05-03T01:13:18.145Z,36.25
2023-05-03T01:15:25.747Z,34.45
2023-05-03T01:17:32.523Z,36.63
2023-05-03T01:19:41.094Z,37.78
2023-05-03T01:21:42.899Z,36.47
2023-05-03T01:24:03.407Z,37.40
2023-05-03T01:26:23.992Z,38.45
2023-05-03T01:28:25.725Z,39.00
2023-05-03T01:30:28.203Z,37.58
2023-05-03T01:32:36.421Z,39.97
2023-05-03T01:34:40.648Z,41.20
2023-05-03T01:36:44.167Z,41.40
2023-05-03T01:38:45.975Z,42.30
2023-05-03T01:40:49.464Z,43.30
2023-05-03T01:42:51.333Z,44.88
2023-05-03T01:44:53.733Z,47.90
2023-05-03T01:46:57.014Z,47.17
2023-05-03T01:48:58.436Z,51.95
2023-05-03T01:51:00.299Z,51.13
2023-05-03T01:53:01.935Z,47.72
2023-05-03T01:55:03.461Z,47.33
2023-05-03T01:57:05.611Z,45.03
2023-05-03T01:59:07.147Z,45.20
2023-05-03T02:01:08.661Z,46.92
2023-05-03T02:03:10.202Z,48.08
2023-05-03T02:05:12.061Z,51.05
2023-05-03T02:07:13.470Z,49.95
2023-05-03T02:09:15.431Z,49.83
2023-05-03T02:11:16.806Z,48.58
2023-05-03T02:13:18.186Z,47.95
2023-05-03T02:15:22.517Z,47.90
2023-05-03T02:17:26.637Z,47.22
2023-05-03T02:19:28.086Z,46.13
2023-05-03T02:21:29.484Z,48.10
2023-05-03T02:23:30.902Z,48.70
2023-05-03T02:25:32.349Z,46.85
2023-05-03T02:27:33.759Z,45.17
2023-05-03T02:29:35.509Z,46.88
2023-05-03T02:31:36.972Z,47.80
2023-05-03T02:33:38.374Z,45.55
2023-05-03T02:35:39.769Z,44.28
2023-05-03T02:37:41.224Z,42.65
2023-05-03T02:39:42.672Z,42.45
2023-05-03T02:41:44.255Z,42.00
2023-05-03T02:43:45.750Z,41.85
2023-05-03T02:45:47.301Z,41.30
2023-05-03T02:47:48.718Z,40.25
2023-05-03T02:49:50.168Z,41.00
2023-05-03T02:51:53.051Z,41.35
2023-05-03T02:53:54.812Z,42.33
2023-05-03T02:55:56.198Z,42.92
2023-05-03T02:57:57.641Z,42.72
2023-05-03T02:59:59.082Z,44.00
2023-05-03T03:02:00.560Z,44.75
2023-05-03T03:04:02.162Z,43.10
2023-05-03T03:06:03.693Z,45.13
2023-05-03T03:08:05.670Z,44.97
2023-05-03T03:10:07.851Z,47.25
2023-05-03T03:12:09.239Z,47.55
2023-05-03T03:14:10.656Z,47.58
2023-05-03T03:16:13.543Z,48.13
2023-05-03T03:18:16.088Z,47.05
2023-05-03T03:20:18.628Z,50.17
2023-05-03T03:22:20.046Z,50.30
2023-05-03T03:24:21.735Z,48.90
2023-05-03T03:26:23.284Z,50.13
2023-05-03T03:28:24.754Z,50.08
2023-05-03T03:30:26.233Z,52.15
2023-05-03T03:32:27.678Z,52.17
2023-05-03T03:34:29.180Z,53.95
2023-05-03T03:36:31.502Z,57.53
2023-05-03T03:38:33.024Z,56.50
2023-05-03T03:40:34.523Z,52.85
2023-05-03T03:42:36.064Z,51.28
2023-05-03T03:44:37.571Z,49.40
2023-05-03T03:46:39.035Z,52.10
2023-05-03T03:48:40.524Z,53.67
2023-05-03T03:50:42.019Z,52.10
2023-05-03T03:52:43.439Z,52.25
2023-05-03T03:54:44.953Z,52.03
2023-05-03T03:56:46.453Z,53.42
2023-05-03T03:58:48.590Z,54.20
2023-05-03T04:00:50.576Z,53.50
2023-05-03T04:02:52.062Z,52.45
2023-05-03T04:04:53.513Z,51.85
2023-05-03T04:06:54.969Z,52.83
2023-05-03T04:08:56.418Z,52.33
2023-05-03T04:10:57.924Z,51.13
2023-05-03T04:12:59.382Z,47.65
2023-05-03T04:15:00.844Z,46.08
2023-05-03T04:17:02.381Z,40.08
2023-05-03T04:19:04.163Z,37.80
2023-05-03T04:21:05.907Z,26.85
2023-05-03T04:23:07.451Z,22.80
2023-05-03T04:25:11.501Z,23.75
2023-05-03T04:27:14.970Z,22.10
2023-05-03T04:29:16.898Z,20.40
2023-05-03T04:31:19.958Z,21.42
2023-05-03T04:33:22.101Z,18.75
2023-05-03T04:35:23.518Z,20.77
2023-05-03T04:37:24.978Z,19.45
2023-05-03T04:39:26.493Z,18.55
2023-05-03T04:41:28.007Z,18.20
2023-05-03T04:43:29.415Z,12.57
2023-05-03T04:45:31.286Z,14.68
2023-05-03T04:47:33.065Z,14.63
2023-05-03T04:49:34.862Z,13.30
2023-05-03T04:51:36.286Z,13.95
2023-05-03T04:53:37.886Z,12.40
2023-05-03T04:55:39.352Z,12.75
2023-05-03T04:57:40.755Z,12.35
2023-05-03T04:59:42.469Z,11.15
2023-05-03T05:01:43.882Z,11.07
2023-05-03T05:03:45.561Z,11.15
2023-05-03T05:05:47.049Z,10.38
2023-05-03T05:07:48.465Z,10.95
2023-05-03T05:09:49.885Z,10.23
2023-05-03T05:11:51.867Z,9.73
2023-05-03T05:13:53.286Z,6.13
2023-05-03T05:15:55.789Z,9.07
2023-05-03T05:17:57.349Z,8.15
2023-05-03T05:19:58.914Z,8.45
2023-05-03T05:22:00.351Z,8.02
2023-05-03T05:24:02.043Z,8.07
2023-05-03T05:26:04.653Z,8.23
2023-05-03T05:28:06.053Z,8.23
2023-05-03T05:30:07.883Z,7.75
2023-05-03T05:32:09.367Z,8.20
2023-05-03T05:34:10.945Z,7.13
2023-05-03T05:36:12.375Z,7.63
2023-05-03T05:38:13.890Z,8.40
2023-05-03T05:40:15.523Z,7.32
2023-05-03T05:42:17.242Z,6.95
2023-05-03T05:44:18.701Z,8.18
2023-05-03T05:46:23.285Z,8.55
2023-05-03T05:48:24.791Z,7.78
2023-05-03T05:50:26.565Z,7.60
2023-05-03T05:52:27.948Z,8.50
2023-05-03T05:54:30.500Z,8.70
2023-05-03T05:56:32.078Z,9.02
2023-05-03T05:58:33.578Z,9.52
2023-05-03T06:00:35.211Z,9.25
2023-05-03T06:02:36.801Z,8.10
2023-05-03T06:04:38.385Z,7.47
2023-05-03T06:06:39.989Z,6.78
2023-05-03T06:08:41.505Z,7.22
2023-05-03T06:10:42.958Z,7.25
2023-05-03T06:12:44.374Z,6.80
2023-05-03T06:14:59.049Z,6.80
2023-05-03T06:17:02.787Z,7.43
2023-05-03T06:19:05.119Z,8.02
2023-05-03T06:21:06.571Z,7.68
2023-05-03T06:23:08.113Z,7.63
2023-05-03T06:25:10.536Z,7.68
2023-05-03T06:27:12.096Z,6.88
2023-05-03T06:29:13.505Z,7.22
2023-05-03T06:31:15.006Z,7.28
2023-05-03T06:33:16.520Z,6.45
2023-05-03T06:35:19.798Z,6.60
2023-05-03T06:37:21.319Z,6.28
2023-05-03T06:39:22.803Z,6.88
2023-05-03T06:41:24.441Z,6.30
2023-05-03T06:43:26.169Z,5.70
2023-05-03T06:45:27.873Z,5.22
2023-05-03T06:47:29.311Z,5.63
2023-05-03T06:49:30.683Z,5.85
2023-05-03T06:51:33.175Z,6.28
2023-05-03T06:53:34.684Z,6.00
2023-05-03T06:55:36.134Z,5.82
2023-05-03T06:57:37.603Z,5.93
2023-05-03T06:59:39.044Z,6.22
2023-05-03T07:01:40.577Z,6.03
2023-05-03T07:03:42.225Z,6.35
2023-05-03T07:05:43.947Z,6.30
2023-05-03T07:07:46.245Z,6.15
2023-05-03T07:09:47.665Z,6.60
2023-05-03T07:11:50.470Z,6.90
2023-05-03T07:13:52.571Z,5.70
2023-05-03T07:15:54.072Z,6.15
2023-05-03T07:17:55.492Z,5.07
2023-05-03T07:19:57.091Z,4.65
2023-05-03T07:21:58.531Z,5.10
2023-05-03T07:24:02.566Z,4.65
2023-05-03T07:26:04.046Z,4.22
2023-05-03T07:28:05.472Z,5.05
2023-05-03T07:30:08.118Z,5.50
2023-05-03T07:32:09.746Z,5.93
2023-05-03T07:34:11.483Z,5.15
2023-05-03T07:36:12.887Z,5.13
2023-05-03T07:38:14.350Z,5.32
2023-05-03T07:40:15.944Z,4.75
2023-05-03T07:42:17.456Z,4.97
2023-05-03T07:44:19.108Z,5.18
2023-05-03T07:46:20.789Z,5.00
2023-05-03T07:48:22.251Z,5.68
2023-05-03T07:50:23.714Z,5.70
2023-05-03T07:52:25.147Z,5.85
2023-05-03T07:54:26.818Z,5.90
2023-05-03T07:56:28.698Z,6.32
2023-05-03T07:58:39.996Z,6.40
2023-05-03T08:00:42.727Z,5.88
2023-05-03T08:02:44.363Z,6.47
2023-05-03T08:04:46.068Z,6.82
2023-05-03T08:06:48.007Z,7.15
2023-05-03T08:08:49.577Z,7.13
2023-05-03T08:10:52.565Z,9.20
2023-05-03T08:12:53.998Z,5.95
2023-05-03T08:14:56.108Z,6.32
2023-05-03T08:16:57.892Z,6.13
2023-05-03T08:18:59.324Z,7.20
2023-05-03T08:21:00.960Z,6.35
2023-05-03T08:23:02.636Z,7.55
2023-05-03T08:25:04.884Z,6.50
2023-05-03T08:27:08.800Z,5.72
2023-05-03T08:29:10.364Z,6.40
2023-05-03T08:31:12.126Z,6.60
2023-05-03T08:33:13.725Z,5.65
2023-05-03T08:35:15.759Z,6.18
2023-05-03T08:37:17.382Z,5.05
2023-05-03T08:39:19.200Z,6.93
2023-05-03T08:41:31.135Z,6.70
2023-05-03T08:43:36.635Z,6.55
2023-05-03T08:45:38.066Z,7.22
2023-05-03T08:47:41.646Z,8.45
2023-05-03T08:49:43.936Z,7.63
2023-05-03T08:51:49.637Z,12.10
2023-05-03T08:53:51.210Z,9.75
2023-05-03T08:55:53.667Z,8.98
2023-05-03T08:57:55.639Z,8.80
2023-05-03T09:00:00.767Z,8.80
2023-05-03T09:02:03.238Z,8.40
2023-05-03T09:04:05.025Z,8.63
2023-05-03T09:06:19.251Z,8.25
2023-05-03T09:08:22.801Z,8.18
2023-05-03T09:10:24.665Z,7.70
2023-05-03T09:12:36.630Z,7.43
2023-05-03T09:14:45.592Z,8.05
2023-05-03T09:16:47.581Z,8.00
2023-05-03T09:18:58.884Z,7.55
2023-05-03T09:21:00.340Z,8.63
2023-05-03T09:23:01.909Z,8.18
2023-05-03T09:25:04.215Z,9.75
2023-05-03T09:27:18.169Z,9.48
2023-05-03T09:29:36.178Z,8.15
2023-05-03T09:31:38.067Z,9.60
2023-05-03T09:33:39.903Z,8.15
2023-05-03T09:36:00.038Z,8.90
2023-05-03T09:38:01.986Z,6.90
2023-05-03T09:40:11.671Z,6.65
2023-05-03T09:42:17.013Z,8.27
2023-05-03T09:44:18.460Z,8.60
2023-05-03T09:46:20.627Z,8.18
2023-05-03T09:48:26.064Z,6.35
2023-05-03T09:50:28.027Z,3.58
2023-05-03T09:52:30.569Z,5.35
2023-05-03T09:54:32.164Z,3.72
2023-05-03T09:56:33.692Z,5.30
2023-05-03T09:58:35.914Z,6.93
2023-05-03T10:00:38.542Z,4.57
2023-05-03T10:02:41.610Z,4.70
2023-05-03T10:04:51.885Z,6.00
2023-05-03T10:06:56.847Z,6.28
2023-05-03T10:08:58.356Z,5.38
2023-05-03T10:11:00.600Z,5.32
2023-05-03T10:13:03.500Z,5.45
2023-05-03T10:15:07.317Z,4.18
2023-05-03T10:17:12.025Z,5.63
2023-05-03T10:19:14.759Z,5.60
2023-05-03T10:21:21.867Z,5.25
2023-05-03T10:23:23.344Z,4.80
2023-05-03T10:25:24.912Z,5.05
2023-05-03T10:27:37.510Z,3.95
2023-05-03T10:29:49.068Z,4.53
2023-05-03T10:31:51.090Z,4.85
2023-05-03T10:33:52.606Z,3.92
2023-05-03T10:35:54.540Z,5.35
2023-05-03T10:37:59.387Z,5.30
2023-05-03T10:40:27.418Z,3.80
2023-05-03T10:42:30.982Z,6.88
2023-05-03T10:44:38.353Z,6.57
2023-05-03T10:46:39.777Z,6.50
2023-05-03T10:48:41.640Z,6.07
2023-05-03T10:50:43.133Z,10.57
2023-05-03T10:52:44.539Z,7.70
2023-05-03T10:54:46.332Z,5.35
2023-05-03T10:56:48.635Z,5.80
2023-05-03T10:58:50.866Z,5.78
2023-05-03T11:00:52.541Z,8.50
2023-05-03T11:02:57.085Z,6.63
2023-05-03T11:05:01.838Z,5.85
2023-05-03T11:07:04.632Z,6.15
2023-05-03T11:09:06.915Z,9.80
2023-05-03T11:11:10.007Z,6.00
2023-05-03T11:13:12.121Z,7.20
2023-05-03T11:15:13.773Z,6.70
2023-05-03T11:17:15.326Z,6.85
2023-05-03T11:19:17.157Z,6.63
2023-05-03T11:21:18.969Z,6.65
2023-05-03T11:23:24.821Z,5.68
2023-05-03T11:25:27.071Z,7.82
2023-05-03T11:27:28.651Z,5.10
2023-05-03T11:29:30.137Z,6.03
2023-05-03T11:31:31.979Z,4.22
2023-05-03T11:33:35.217Z,4.18
2023-05-03T11:35:37.632Z,4.88
2023-05-03T11:37:39.011Z,5.55
2023-05-03T11:39:41.731Z,4.70
2023-05-03T11:41:43.258Z,4.68
2023-05-03T11:43:45.567Z,6.30
2023-05-03T11:45:48.322Z,5.60
2023-05-03T11:47:49.918Z,7.63
2023-05-03T11:49:55.407Z,7.53
2023-05-03T11:51:57.055Z,9.27
2023-05-03T11:54:02.863Z,5.68
2023-05-03T11:56:09.970Z,5.53
2023-05-03T11:58:18.122Z,6.13
2023-05-03T12:00:24.052Z,6.68
2023-05-03T12:02:27.410Z,6.35
2023-05-03T12:04:29.150Z,5.88
2023-05-03T12:06:36.077Z,4.68
2023-05-03T12:08:41.072Z,4.70
2023-05-03T12:10:45.505Z,4.25
2023-05-03T12:12:57.592Z,4.78
2023-05-03T12:15:03.480Z,4.82
2023-05-03T12:17:07.470Z,4.72
2023-05-03T12:19:09.704Z,5.47
2023-05-03T12:23:16.993Z,6.88
2023-05-03T12:25:20.377Z,4.80
2023-05-03T12:27:23.866Z,4.70
2023-05-03T12:29:26.863Z,3.80
2023-05-03T12:31:33.471Z,4.30
2023-05-03T12:33:38.563Z,4.85
2023-05-03T12:35:41.342Z,4.30
2023-05-03T12:37:43.736Z,4.05
2023-05-03T12:39:50.033Z,4.22
2023-05-03T12:44:02.833Z,4.43
2023-05-03T12:48:09.349Z,3.30
2023-05-03T12:50:12.651Z,3.45
2023-05-03T12:54:19.185Z,3.63
2023-05-03T12:56:24.573Z,3.60
2023-05-03T13:00:39.116Z,3.20
2023-05-03T13:04:58.887Z,3.05
2023-05-03T13:07:01.693Z,3.63
2023-05-03T13:09:03.888Z,3.83
2023-05-03T13:11:05.631Z,3.63
2023-05-03T13:13:07.321Z,2.20
2023-05-03T13:15:09.139Z,3.38
2023-05-03T13:17:12.010Z,6.20
2023-05-03T13:19:13.574Z,4.18
2023-05-03T13:21:15.409Z,4.38
2023-05-03T13:23:16.850Z,4.22
2023-05-03T13:25:18.273Z,3.83
2023-05-03T13:27:19.669Z,3.35
2023-05-03T13:29:22.207Z,3.03
2023-05-03T13:31:24.488Z,3.47
2023-05-03T13:33:26.334Z,2.92
2023-05-03T13:35:27.814Z,3.10
2023-05-03T13:37:29.227Z,3.42
2023-05-03T13:39:30.832Z,2.50
2023-05-03T13:41:32.582Z,2.72
2023-05-03T13:43:34.777Z,3.03
2023-05-03T13:45:36.283Z,4.45
2023-05-03T13:49:42.032Z,2.92
2023-05-03T13:51:43.584Z,2.75
2023-05-03T13:53:45.141Z,2.72
2023-05-03T13:55:46.623Z,3.25
2023-05-03T13:57:48.094Z,3.00
2023-05-03T13:59:51.011Z,2.30
2023-05-03T14:01:52.594Z,2.15
2023-05-03T14:03:54.731Z,2.72
2023-05-03T14:05:56.223Z,2.60
2023-05-03T14:07:58.248Z,2.50
2023-05-03T14:09:59.644Z,2.67
2023-05-03T14:12:01.211Z,2.63
2023-05-03T14:14:03.371Z,3.45
2023-05-03T14:16:05.194Z,3.40
2023-05-03T14:18:08.058Z,2.75
2023-05-03T14:20:12.689Z,2.40
2023-05-03T14:22:14.152Z,2.50
2023-05-03T14:24:15.995Z,2.67
2023-05-03T14:26:17.944Z,3.55
2023-05-03T14:28:19.543Z,3.58
2023-05-03T14:30:21.482Z,2.53
2023-05-03T14:32:24.421Z,2.65
2023-05-03T14:34:26.134Z,2.72
2023-05-03T14:36:34.947Z,3.28
2023-05-03T14:38:37.238Z,2.97
2023-05-03T14:40:38.768Z,3.75
2023-05-03T14:42:40.842Z,3.30
2023-05-03T14:44:42.600Z,2.47
2023-05-03T14:46:44.270Z,2.70
2023-05-03T14:48:45.680Z,2.83
2023-05-03T14:50:50.781Z,3.03
2023-05-03T14:52:52.241Z,2.50
2023-05-03T14:54:54.580Z,2.85
2023-05-03T14:56:56.158Z,3.83
2023-05-03T14:58:57.664Z,2.53
2023-05-03T15:00:59.489Z,2.25
2023-05-03T15:03:01.033Z,2.70
2023-05-03T15:05:03.956Z,2.92
2023-05-03T15:07:07.309Z,2.80
2023-05-03T15:09:11.265Z,3.15
2023-05-03T15:11:12.965Z,3.50
2023-05-03T15:13:15.294Z,3.83
2023-05-03T15:15:17.288Z,2.78
2023-05-03T15:17:19.013Z,3.40
2023-05-03T15:19:21.476Z,2.83
2023-05-03T15:21:23.784Z,2.60
2023-05-03T15:23:25.251Z,3.00
2023-05-03T15:25:27.112Z,3.10
2023-05-03T15:27:28.555Z,92.28
2023-05-03T15:29:30.282Z,6.10
2023-05-03T15:31:32.648Z,3.35
2023-05-03T15:33:43.891Z,2.70
2023-05-03T15:35:45.303Z,2.20
2023-05-03T15:37:46.857Z,2.75
2023-05-03T15:39:48.323Z,2.60
2023-05-03T15:41:49.790Z,3.75
2023-05-03T15:43:51.259Z,3.60
2023-05-03T15:45:52.707Z,4.10
2023-05-03T15:47:55.121Z,5.03
2023-05-03T15:49:57.740Z,3.17
2023-05-03T15:51:59.169Z,3.00
2023-05-03T15:54:01.560Z,3.47
2023-05-03T15:56:04.169Z,4.32
2023-05-03T15:58:07.533Z,5.70
2023-05-03T16:00:09.503Z,4.00
2023-05-03T16:02:11.213Z,2.25
2023-05-03T16:04:12.647Z,3.17
2023-05-03T16:06:16.822Z,3.58
2023-05-03T16:08:20.113Z,2.83
2023-05-03T16:10:24.223Z,6.40
2023-05-03T16:12:27.336Z,3.47
2023-05-03T16:14:28.828Z,3.50
2023-05-03T16:16:30.505Z,4.70
2023-05-03T16:18:32.708Z,3.47
2023-05-03T16:20:34.131Z,3.88
2023-05-03T16:22:35.536Z,2.90
2023-05-03T16:24:37.546Z,4.10
2023-05-03T16:26:38.955Z,3.60
2023-05-03T16:28:40.846Z,3.25
2023-05-03T16:30:42.627Z,2.60
2023-05-03T16:32:44.174Z,4.93
2023-05-03T16:34:45.820Z,3.58
2023-05-03T16:36:47.843Z,2.85
2023-05-03T16:38:49.307Z,3.88
2023-05-03T16:40:50.729Z,6.13
2023-05-03T16:42:52.205Z,5.28
2023-05-03T16:44:53.648Z,9.13
2023-05-03T16:46:55.251Z,8.68
2023-05-03T16:48:56.884Z,13.13
2023-05-03T16:51:01.355Z,10.35
2023-05-03T16:53:02.753Z,8.00
2023-05-03T16:55:04.330Z,7.93
2023-05-03T16:57:05.752Z,3.25
2023-05-03T16:59:07.263Z,4.65
2023-05-03T17:01:08.712Z,6.50
2023-05-03T17:03:10.199Z,8.48
2023-05-03T17:05:13.026Z,11.60
2023-05-03T17:07:14.483Z,13.93
2023-05-03T17:09:16.817Z,13.88
2023-05-03T17:11:18.195Z,12.93
2023-05-03T17:13:19.838Z,10.55
2023-05-03T17:15:21.404Z,8.80
2023-05-03T17:17:22.855Z,9.07
2023-05-03T17:19:24.272Z,8.63
2023-05-03T17:21:25.649Z,11.00
2023-05-03T17:23:27.544Z,9.75
2023-05-03T17:25:29.178Z,12.13
2023-05-03T17:27:30.594Z,10.95
2023-05-03T17:29:32.009Z,11.68
2023-05-03T17:31:33.776Z,14.93
2023-05-03T17:33:35.434Z,11.57
2023-05-03T17:35:36.888Z,9.90
2023-05-03T17:37:38.604Z,10.50
2023-05-03T17:39:40.081Z,12.70
2023-05-03T17:41:41.509Z,12.27
2023-05-03T17:43:43.224Z,17.90
2023-05-03T17:45:45.225Z,26.52
2023-05-03T17:47:47.126Z,23.65
2023-05-03T17:49:48.541Z,19.33
2023-05-03T17:51:49.944Z,9.73
2023-05-03T17:53:51.425Z,9.00
2023-05-03T17:55:53.766Z,5.53
2023-05-03T17:57:55.503Z,4.40
2023-05-03T17:59:56.924Z,5.10
2023-05-03T18:01:58.571Z,3.92
2023-05-03T18:04:00.146Z,4.50
2023-05-03T18:06:01.692Z,6.15
2023-05-03T18:08:03.803Z,10.13
2023-05-03T18:10:05.978Z,9.50
2023-05-03T18:12:07.557Z,15.63
2023-05-03T18:14:08.974Z,12.38
2023-05-03T18:16:10.745Z,13.75
2023-05-03T18:18:13.524Z,14.95
2023-05-03T18:20:15.088Z,10.77
2023-05-03T18:22:16.571Z,13.43
2023-05-03T18:24:18.262Z,16.85
2023-05-03T18:26:19.727Z,14.85
2023-05-03T18:28:22.679Z,17.63
2023-05-03T18:30:26.186Z,15.82
2023-05-03T18:32:27.743Z,84.53
2023-05-03T18:34:29.720Z,43.17
2023-05-03T18:36:31.430Z,36.05
2023-05-03T18:38:32.867Z,10.65
2023-05-03T18:40:34.244Z,6.95
2023-05-03T18:42:35.745Z,10.82
2023-05-03T18:44:39.657Z,14.32
2023-05-03T18:46:41.278Z,10.50
2023-05-03T18:48:42.958Z,20.30
2023-05-03T18:50:44.395Z,25.10
2023-05-03T18:52:45.841Z,11.52
2023-05-03T18:54:47.499Z,7.13
2023-05-03T18:56:48.930Z,7.57
2023-05-03T18:58:50.335Z,8.07
2023-05-03T19:00:51.786Z,9.35
2023-05-03T19:02:53.275Z,12.77
2023-05-03T19:04:55.289Z,8.98
2023-05-03T19:06:57.642Z,9.07
2023-05-03T19:08:59.139Z,9.50
2023-05-03T19:11:07.150Z,6.55
2023-05-03T19:13:08.735Z,6.97
2023-05-03T19:15:10.947Z,6.35
2023-05-03T19:17:12.356Z,5.22
2023-05-03T19:19:13.862Z,7.72
2023-05-03T19:21:19.329Z,7.38
2023-05-03T19:23:20.949Z,6.75
2023-05-03T19:25:22.390Z,6.85
2023-05-03T19:27:23.810Z,6.75
2023-05-03T19:29:25.676Z,7.43
2023-05-03T19:31:27.189Z,6.45
2023-05-03T19:33:28.673Z,8.00
2023-05-03T19:35:30.069Z,9.45
2023-05-03T19:37:31.491Z,20.80
2023-05-03T19:39:35.652Z,6.10
2023-05-03T19:41:37.974Z,6.07
2023-05-03T19:43:40.242Z,6.47
2023-05-03T19:45:41.898Z,10.80
2023-05-03T19:47:44.507Z,9.85
2023-05-03T19:49:46.648Z,9.63
2023-05-03T19:51:48.917Z,8.85
2023-05-03T19:53:50.330Z,10.63
2023-05-03T19:55:58.676Z,10.30
2023-05-03T19:58:00.263Z,7.22
2023-05-03T20:00:02.553Z,8.30
2023-05-03T20:02:04.120Z,7.95
2023-05-03T20:04:05.628Z,7.10
2023-05-03T20:06:07.092Z,9.07
2023-05-03T20:08:08.739Z,7.40
2023-05-03T20:10:10.330Z,59.90
2023-05-03T20:12:12.134Z,26.48
2023-05-03T20:14:13.588Z,29.98
2023-05-03T20:16:15.119Z,52.85
2023-05-03T20:18:16.646Z,58.83
2023-05-03T20:20:18.103Z,52.90
2023-05-03T20:22:19.559Z,33.20
2023-05-03T20:24:21.342Z,35.00
2023-05-03T20:26:22.795Z,42.70
2023-05-03T20:28:24.474Z,43.60
2023-05-03T20:30:25.968Z,49.88
2023-05-03T20:32:27.433Z,116.85
2023-05-03T20:34:29.534Z,122.90
2023-05-03T20:36:31.582Z,66.40
2023-05-03T20:38:33.323Z,39.03
2023-05-03T20:40:34.766Z,32.10
2023-05-03T20:42:36.368Z,29.92
2023-05-03T20:44:38.207Z,31.05
2023-05-03T20:46:40.434Z,34.30
2023-05-03T20:48:41.837Z,32.95
2023-05-03T20:50:43.631Z,31.23
2023-05-03T20:52:45.055Z,29.58
2023-05-03T20:54:46.584Z,28.05
2023-05-03T20:56:48.078Z,28.33
2023-05-03T20:58:49.849Z,30.92
2023-05-03T21:00:51.801Z,37.33
2023-05-03T21:02:54.669Z,35.30
2023-05-03T21:04:56.242Z,34.47
2023-05-03T21:06:57.640Z,33.83
2023-05-03T21:08:59.084Z,35.10
2023-05-03T21:11:00.581Z,35.60
2023-05-03T21:13:02.037Z,35.38
2023-05-03T21:15:03.702Z,36.00
2023-05-03T21:17:06.550Z,36.72
2023-05-03T21:19:08.075Z,36.85
2023-05-03T21:21:09.550Z,40.08
2023-05-03T21:23:11.030Z,35.38
2023-05-03T21:25:12.431Z,31.20
2023-05-03T21:27:13.891Z,35.85
2023-05-03T21:29:15.304Z,33.47
2023-05-03T21:31:16.898Z,30.08
2023-05-03T21:33:18.537Z,27.42
2023-05-03T21:35:20.690Z,28.38
2023-05-03T21:37:22.216Z,26.35
2023-05-03T21:39:23.676Z,25.20
2023-05-03T21:41:25.067Z,26.00
2023-05-03T21:43:26.464Z,25.02
2023-05-03T21:45:27.880Z,25.17
2023-05-03T21:47:29.832Z,24.65
2023-05-03T21:49:31.417Z,26.08
2023-05-03T21:51:32.985Z,26.95
2023-05-03T21:53:35.612Z,30.00
2023-05-03T21:55:37.053Z,31.38
2023-05-03T21:57:38.553Z,31.08
2023-05-03T21:59:40.028Z,30.98
2023-05-03T22:01:41.535Z,31.92
2023-05-03T22:03:43.066Z,32.90
2023-05-03T22:05:47.821Z,34.80
2023-05-03T22:07:49.351Z,33.17
2023-05-03T22:09:50.752Z,32.65
2023-05-03T22:11:52.333Z,32.35
2023-05-03T22:14:06.735Z,31.42
2023-05-03T22:16:11.581Z,34.65
2023-05-03T22:18:13.066Z,36.17
2023-05-03T22:20:14.528Z,34.30
2023-05-03T22:22:16.003Z,30.92
2023-05-03T22:24:17.625Z,27.63
2023-05-03T22:26:19.047Z,22.02
2023-05-03T22:28:20.615Z,22.48
2023-05-03T22:30:22.092Z,22.48
2023-05-03T22:32:23.771Z,23.67
2023-05-03T22:34:25.222Z,24.30
2023-05-03T22:36:26.690Z,27.25
2023-05-03T22:38:28.177Z,27.23
2023-05-03T22:40:29.603Z,26.83
2023-05-03T22:42:31.019Z,22.25
2023-05-03T22:44:32.502Z,24.08
2023-05-03T22:46:34.105Z,18.80
2023-05-03T22:48:35.518Z,18.40
2023-05-03T22:50:37.001Z,16.70
2023-05-03T22:52:38.390Z,19.48
2023-05-03T22:54:39.797Z,17.38
2023-05-03T22:56:41.229Z,17.13
2023-05-03T22:58:42.714Z,21.05
2023-05-03T23:00:44.276Z,20.27
2023-05-03T23:02:45.880Z,20.50
2023-05-03T23:04:47.538Z,24.27
2023-05-03T23:06:48.940Z,28.50
2023-05-03T23:08:50.533Z,38.22
2023-05-03T23:10:54.122Z,51.58
2023-05-03T23:12:55.571Z,32.13
2023-05-03T23:14:57.069Z,21.88
2023-05-03T23:16:58.543Z,27.70
2023-05-03T23:18:59.999Z,24.88
2023-05-03T23:21:01.414Z,25.88
2023-05-03T23:23:02.901Z,23.92
2023-05-03T23:25:05.051Z,23.98
2023-05-03T23:27:07.766Z,21.17
2023-05-03T23:29:09.633Z,20.83
2023-05-03T23:31:11.567Z,19.40
2023-05-03T23:33:13.633Z,18.77
2023-05-03T23:35:15.644Z,19.27
2023-05-03T23:37:17.097Z,24.67
2023-05-03T23:39:18.739Z,29.88
2023-05-03T23:41:20.318Z,25.55
2023-05-03T23:43:21.765Z,35.10
2023-05-03T23:45:23.494Z,28.60
2023-05-03T23:47:24.964Z,29.85
2023-05-03T23:49:26.503Z,38.33
2023-05-03T23:51:28.055Z,37.33
2023-05-03T23:53:29.462Z,31.67
2023-05-03T23:55:31.087Z,30.35
2023-05-03T23:57:32.470Z,30.13
2023-05-03T23:59:33.995Z,29.85
